createdAt,value
2018-09-13T00:00:29.445Z,14.40
2018-09-13T00:02:57.794Z,14.40
2018-09-13T00:05:26.458Z,14.40
2018-09-13T00:07:55.132Z,14.50
2018-09-13T00:10:23.713Z,14.40
2018-09-13T00:12:52.182Z,14.50
2018-09-13T00:15:20.716Z,14.40
2018-09-13T00:17:49.067Z,14.40
2018-09-13T00:20:17.433Z,14.50
2018-09-13T00:22:45.945Z,14.50
2018-09-13T00:25:14.504Z,14.50
2018-09-13T00:27:42.870Z,14.40
2018-09-13T00:30:11.194Z,14.40
2018-09-13T00:32:39.608Z,14.40
2018-09-13T00:35:08.017Z,14.40
2018-09-13T00:37:36.329Z,14.40
2018-09-13T00:40:04.671Z,14.40
2018-09-13T00:42:33.080Z,14.40
2018-09-13T00:45:01.418Z,14.40
2018-09-13T00:47:30.025Z,14.40
2018-09-13T00:49:58.369Z,14.30
2018-09-13T00:52:26.698Z,14.30
2018-09-13T00:54:56.054Z,14.40
2018-09-13T00:57:24.423Z,14.40
2018-09-13T00:59:52.772Z,14.30
2018-09-13T01:02:21.142Z,14.30
2018-09-13T01:04:49.470Z,14.30
2018-09-13T01:07:17.920Z,14.30
2018-09-13T01:09:46.285Z,14.30
2018-09-13T01:12:14.638Z,14.20
2018-09-13T01:14:43.019Z,14.20
2018-09-13T01:17:11.360Z,14.30
2018-09-13T01:19:39.645Z,14.20
2018-09-13T01:22:08.203Z,14.30
2018-09-13T01:24:36.602Z,14.30
2018-09-13T01:27:04.979Z,14.30
2018-09-13T01:29:33.343Z,14.30
2018-09-13T01:32:02.512Z,14.40
2018-09-13T01:34:30.881Z,14.30
2018-09-13T01:36:59.250Z,14.30
2018-09-13T01:39:27.598Z,14.20
2018-09-13T01:41:55.946Z,14.20
2018-09-13T01:44:24.289Z,14.10
2018-09-13T01:46:52.667Z,14.20
2018-09-13T01:49:21.040Z,14.20
2018-09-13T01:51:49.344Z,14.20
2018-09-13T01:54:17.727Z,14.20
2018-09-13T01:56:46.751Z,14.20
2018-09-13T01:59:15.140Z,14.20
2018-09-13T02:01:43.583Z,14.20
2018-09-13T02:04:11.921Z,14.30
2018-09-13T02:06:40.266Z,14.40
2018-09-13T02:09:09.861Z,14.40
2018-09-13T02:11:38.357Z,14.30
2018-09-13T02:14:11.374Z,14.40
2018-09-13T02:16:39.702Z,14.40
2018-09-13T02:19:08.034Z,14.40
2018-09-13T02:21:36.628Z,14.30
2018-09-13T02:24:04.957Z,14.30
2018-09-13T02:26:33.282Z,14.30
2018-09-13T02:29:02.398Z,14.30
2018-09-13T02:31:30.723Z,14.30
2018-09-13T02:33:59.134Z,14.30
2018-09-13T02:36:27.518Z,14.30
2018-09-13T02:38:55.815Z,14.30
2018-09-13T02:41:24.165Z,14.40
2018-09-13T02:43:52.552Z,14.40
2018-09-13T02:46:20.911Z,14.40
2018-09-13T02:48:49.225Z,14.40
2018-09-13T02:51:17.573Z,14.40
2018-09-13T02:53:45.920Z,14.40
2018-09-13T02:56:14.268Z,14.40
2018-09-13T02:58:42.610Z,14.40
2018-09-13T03:01:11.180Z,14.40
2018-09-13T03:03:39.596Z,14.40
2018-09-13T03:06:07.999Z,14.40
2018-09-13T03:08:36.337Z,14.40
2018-09-13T03:11:04.890Z,14.40
2018-09-13T03:13:33.385Z,14.30
2018-09-13T03:16:02.028Z,14.20
2018-09-13T03:18:30.575Z,14.20
2018-09-13T03:20:58.882Z,14.20
2018-09-13T03:23:27.256Z,14.00
2018-09-13T03:25:55.600Z,14.00
2018-09-13T03:28:23.971Z,14.00
2018-09-13T03:30:52.464Z,14.00
2018-09-13T03:33:20.846Z,14.00
2018-09-13T03:35:49.225Z,14.00
2018-09-13T03:38:17.894Z,14.10
2018-09-13T03:40:46.327Z,14.10
2018-09-13T03:43:14.656Z,14.10
2018-09-13T03:45:43.014Z,14.10
2018-09-13T03:48:11.400Z,14.20
2018-09-13T03:50:39.761Z,14.20
2018-09-13T03:53:08.160Z,14.20
2018-09-13T03:55:36.492Z,14.20
2018-09-13T03:58:05.067Z,14.30
2018-09-13T04:00:33.407Z,14.30
2018-09-13T04:03:04.444Z,14.30
2018-09-13T04:05:32.753Z,14.30
2018-09-13T04:08:01.383Z,14.30
2018-09-13T04:10:29.859Z,14.30
2018-09-13T04:12:58.258Z,14.30
2018-09-13T04:15:26.701Z,14.30
2018-09-13T04:17:55.062Z,14.30
2018-09-13T04:20:23.556Z,14.40
2018-09-13T04:22:52.001Z,14.50
2018-09-13T04:25:20.333Z,14.50
2018-09-13T04:27:48.716Z,14.60
2018-09-13T04:30:17.054Z,14.60
2018-09-13T04:32:45.401Z,14.50
2018-09-13T04:35:13.782Z,14.60
2018-09-13T04:37:42.385Z,14.40
2018-09-13T04:40:10.797Z,14.40
2018-09-13T04:42:39.139Z,14.40
2018-09-13T04:45:07.683Z,14.40
2018-09-13T04:47:36.164Z,14.40
2018-09-13T04:50:04.852Z,14.40
2018-09-13T04:52:33.231Z,14.40
2018-09-13T04:55:01.614Z,14.40
2018-09-13T04:57:30.071Z,14.40
2018-09-13T04:59:58.429Z,14.40
2018-09-13T05:02:26.987Z,14.50
2018-09-13T05:04:55.363Z,14.40
2018-09-13T05:07:23.814Z,14.40
2018-09-13T05:09:52.409Z,14.30
2018-09-13T05:12:20.900Z,14.40
2018-09-13T05:14:49.277Z,14.40
2018-09-13T05:17:18.400Z,14.40
2018-09-13T05:19:47.000Z,14.40
2018-09-13T05:22:15.331Z,14.50
2018-09-13T05:24:43.679Z,14.40
2018-09-13T05:27:11.995Z,14.40
2018-09-13T05:29:40.621Z,14.40
2018-09-13T05:32:08.995Z,14.50
2018-09-13T05:34:37.493Z,14.60
2018-09-13T05:37:05.909Z,14.60
2018-09-13T05:39:34.239Z,14.60
2018-09-13T05:42:02.655Z,14.70
2018-09-13T05:44:31.000Z,14.60
2018-09-13T05:46:59.427Z,14.70
2018-09-13T05:49:27.792Z,14.70
2018-09-13T05:51:56.161Z,14.70
2018-09-13T05:54:24.733Z,14.70
2018-09-13T05:56:53.055Z,14.70
2018-09-13T05:59:21.358Z,14.70
2018-09-13T06:01:49.780Z,14.70
2018-09-13T06:04:18.179Z,14.60
2018-09-13T06:06:46.584Z,14.60
2018-09-13T06:09:14.970Z,14.60
2018-09-13T06:11:43.321Z,14.60
2018-09-13T06:14:11.828Z,14.70
2018-09-13T06:16:40.471Z,14.70
2018-09-13T06:19:08.903Z,14.70
2018-09-13T06:21:37.266Z,14.80
2018-09-13T06:24:05.717Z,14.80
2018-09-13T06:26:34.173Z,15.00
2018-09-13T06:29:02.565Z,14.90
2018-09-13T06:31:31.024Z,14.90
2018-09-13T06:33:59.624Z,15.00
2018-09-13T06:36:28.026Z,14.90
2018-09-13T06:38:56.414Z,14.90
2018-09-13T06:41:24.753Z,14.90
2018-09-13T06:43:53.130Z,14.90
2018-09-13T06:46:21.513Z,15.00
2018-09-13T06:48:49.874Z,15.00
2018-09-13T06:51:18.206Z,14.90
2018-09-13T06:53:51.263Z,14.90
2018-09-13T06:56:19.617Z,14.80
2018-09-13T06:58:48.350Z,14.90
2018-09-13T07:01:16.733Z,15.00
2018-09-13T07:03:45.094Z,15.00
2018-09-13T07:06:13.469Z,15.10
2018-09-13T07:08:41.926Z,15.30
2018-09-13T07:11:10.390Z,15.40
2018-09-13T07:13:39.393Z,15.40
2018-09-13T07:16:07.828Z,15.50
2018-09-13T07:18:36.342Z,15.50
2018-09-13T07:21:04.875Z,15.50
2018-09-13T07:23:33.370Z,15.60
2018-09-13T07:26:01.776Z,15.50
2018-09-13T07:28:30.264Z,15.40
2018-09-13T07:30:58.688Z,15.50
2018-09-13T07:33:26.976Z,15.50
2018-09-13T07:35:55.410Z,15.60
2018-09-13T07:38:23.793Z,15.60
2018-09-13T07:40:52.169Z,15.50
2018-09-13T07:43:20.680Z,15.50
2018-09-13T07:45:49.207Z,15.60
2018-09-13T07:48:17.597Z,15.50
2018-09-13T07:50:45.992Z,15.50
2018-09-13T07:53:14.354Z,15.40
2018-09-13T07:55:42.715Z,15.40
2018-09-13T07:58:11.151Z,15.40
2018-09-13T08:00:39.500Z,15.30
2018-09-13T08:03:07.972Z,15.20
2018-09-13T08:05:36.329Z,15.20
2018-09-13T08:08:04.767Z,15.20
2018-09-13T08:10:33.191Z,15.20
2018-09-13T08:13:01.612Z,15.20
2018-09-13T08:15:30.018Z,15.30
2018-09-13T08:17:58.583Z,15.40
2018-09-13T08:20:26.988Z,15.50
2018-09-13T08:22:55.414Z,15.40
2018-09-13T08:25:23.784Z,15.60
2018-09-13T08:27:52.152Z,15.70
2018-09-13T08:30:20.548Z,15.80
2018-09-13T08:32:48.920Z,15.90
2018-09-13T08:35:17.480Z,15.90
2018-09-13T08:37:45.884Z,15.80
2018-09-13T08:40:14.333Z,15.80
2018-09-13T08:42:42.673Z,15.70
2018-09-13T08:45:11.038Z,15.60
2018-09-13T08:47:39.592Z,15.60
2018-09-13T08:50:07.889Z,15.60
2018-09-13T08:52:36.263Z,15.70
2018-09-13T08:55:04.638Z,15.70
2018-09-13T08:57:32.990Z,15.80
2018-09-13T09:00:01.467Z,15.70
2018-09-13T09:02:29.833Z,15.70
2018-09-13T09:04:58.241Z,15.60
2018-09-13T09:07:26.606Z,15.60
2018-09-13T09:09:54.953Z,15.60
2018-09-13T09:12:23.334Z,15.50
2018-09-13T09:14:51.668Z,15.50
2018-09-13T09:17:20.010Z,15.50
2018-09-13T09:19:48.421Z,15.50
2018-09-13T09:22:16.875Z,15.50
2018-09-13T09:24:46.078Z,15.60
2018-09-13T09:27:14.467Z,15.50
2018-09-13T09:29:43.045Z,15.50
2018-09-13T09:32:11.392Z,15.50
2018-09-13T09:34:39.780Z,15.60
2018-09-13T09:37:08.152Z,15.50
2018-09-13T09:39:36.525Z,15.60
2018-09-13T09:42:04.905Z,15.80
2018-09-13T09:44:33.305Z,16.00
2018-09-13T09:47:01.720Z,16.00
2018-09-13T09:49:30.084Z,16.10
2018-09-13T09:51:58.481Z,16.20
2018-09-13T09:54:26.853Z,16.00
2018-09-13T09:56:55.224Z,15.90
2018-09-13T09:59:23.600Z,16.00
2018-09-13T10:01:57.308Z,16.00
2018-09-13T10:04:25.803Z,16.10
2018-09-13T10:06:54.403Z,16.30
2018-09-13T10:09:22.786Z,16.40
2018-09-13T10:11:51.144Z,16.40
2018-09-13T10:14:19.850Z,16.30
2018-09-13T10:16:53.919Z,16.40
2018-09-13T10:19:27.697Z,16.60
2018-09-13T10:22:01.329Z,16.60
2018-09-13T10:24:35.098Z,16.60
2018-09-13T10:27:08.921Z,16.70
2018-09-13T10:29:42.736Z,16.80
2018-09-13T10:32:16.442Z,16.90
2018-09-13T10:34:50.266Z,16.80
2018-09-13T10:37:24.009Z,16.90
2018-09-13T10:39:57.701Z,17.00
2018-09-13T10:42:31.389Z,17.10
2018-09-13T10:45:05.113Z,17.30
2018-09-13T10:47:42.164Z,17.20
2018-09-13T10:50:12.958Z,17.20
2018-09-13T10:52:43.217Z,17.10
2018-09-13T10:55:11.641Z,17.20
2018-09-13T10:57:43.141Z,17.30
2018-09-13T11:00:12.583Z,17.20
2018-09-13T11:02:40.966Z,17.00
2018-09-13T11:05:09.465Z,16.80
2018-09-13T11:07:37.994Z,16.80
2018-09-13T11:10:06.506Z,16.70
2018-09-13T11:12:40.363Z,16.80
2018-09-13T11:15:41.371Z,16.90
2018-09-13T11:18:09.773Z,16.90
2018-09-13T11:20:38.236Z,17.00
2018-09-13T11:23:06.671Z,17.10
2018-09-13T11:25:35.131Z,17.20
2018-09-13T11:28:03.529Z,17.10
2018-09-13T11:30:31.940Z,17.10
2018-09-13T11:33:00.269Z,17.00
2018-09-13T11:35:28.765Z,16.90
2018-09-13T11:37:57.167Z,16.80
2018-09-13T11:40:25.693Z,16.90
2018-09-13T11:42:53.958Z,16.80
2018-09-13T11:45:22.390Z,16.70
2018-09-13T11:47:50.737Z,16.60
2018-09-13T11:50:19.120Z,16.70
2018-09-13T11:52:47.605Z,16.90
2018-09-13T11:55:16.112Z,17.00
2018-09-13T11:57:44.525Z,16.90
2018-09-13T12:00:12.950Z,16.80
2018-09-13T12:02:41.429Z,16.80
2018-09-13T12:05:09.821Z,16.60
2018-09-13T12:07:38.246Z,16.40
2018-09-13T12:10:06.847Z,16.40
2018-09-13T12:12:35.294Z,16.40
2018-09-13T12:15:03.818Z,16.40
2018-09-13T12:17:32.889Z,16.50
2018-09-13T12:20:01.718Z,16.50
2018-09-13T12:22:30.229Z,16.40
2018-09-13T12:24:58.571Z,16.30
2018-09-13T12:27:26.992Z,16.40
2018-09-13T12:29:55.396Z,16.30
2018-09-13T12:32:23.843Z,16.10
2018-09-13T12:34:52.354Z,16.10
2018-09-13T12:37:20.875Z,16.10
2018-09-13T12:39:49.290Z,16.20
2018-09-13T12:42:17.798Z,16.20
2018-09-13T12:44:46.224Z,16.30
2018-09-13T12:47:14.733Z,16.30
2018-09-13T12:49:43.360Z,16.30
2018-09-13T12:52:11.960Z,16.30
2018-09-13T12:54:40.423Z,16.30
2018-09-13T12:57:08.968Z,16.00
2018-09-13T12:59:37.311Z,15.90
2018-09-13T13:02:05.755Z,15.90
2018-09-13T13:04:34.480Z,16.00
2018-09-13T13:07:03.184Z,16.10
2018-09-13T13:09:31.659Z,16.00
2018-09-13T13:12:00.198Z,16.00
2018-09-13T13:14:28.665Z,15.90
2018-09-13T13:16:57.101Z,15.90
2018-09-13T13:19:25.489Z,16.00
2018-09-13T13:21:53.898Z,15.90
2018-09-13T13:24:22.287Z,16.00
2018-09-13T13:26:50.663Z,16.10
2018-09-13T13:29:19.431Z,16.20
2018-09-13T13:31:47.781Z,16.30
2018-09-13T13:34:16.299Z,16.20
2018-09-13T13:36:44.686Z,16.40
2018-09-13T13:39:13.074Z,15.10
2018-09-13T13:41:41.512Z,16.20
2018-09-13T13:44:09.864Z,16.10
2018-09-13T13:46:38.381Z,16.10
2018-09-13T13:49:06.748Z,16.00
2018-09-13T13:51:35.125Z,16.00
2018-09-13T13:54:03.533Z,16.10
2018-09-13T13:56:31.884Z,16.10
2018-09-13T13:59:00.295Z,16.20
2018-09-13T14:01:28.650Z,16.10
2018-09-13T14:03:57.049Z,16.10
2018-09-13T14:06:25.458Z,16.10
2018-09-13T14:08:53.828Z,15.70
2018-09-13T14:11:22.262Z,15.70
2018-09-13T14:13:50.645Z,15.70
2018-09-13T14:16:19.147Z,15.80
2018-09-13T14:18:47.536Z,15.60
2018-09-13T14:21:15.910Z,15.60
2018-09-13T14:23:44.351Z,15.80
2018-09-13T14:26:12.714Z,15.90
2018-09-13T14:28:41.167Z,16.10
2018-09-13T14:31:09.541Z,16.20
2018-09-13T14:33:37.937Z,16.20
2018-09-13T14:36:06.921Z,16.30
2018-09-13T14:38:35.414Z,16.30
2018-09-13T14:41:05.006Z,16.20
2018-09-13T14:43:33.401Z,16.40
2018-09-13T14:46:02.003Z,16.50
2018-09-13T14:48:30.301Z,16.50
2018-09-13T14:50:58.794Z,16.40
2018-09-13T14:53:27.177Z,16.30
2018-09-13T14:55:55.480Z,16.20
2018-09-13T14:58:23.907Z,16.20
2018-09-13T15:00:52.410Z,16.30
2018-09-13T15:03:20.828Z,16.30
2018-09-13T15:05:49.293Z,16.20
2018-09-13T15:08:17.740Z,16.10
2018-09-13T15:10:46.242Z,16.00
2018-09-13T15:13:14.670Z,15.90
2018-09-13T15:15:43.065Z,15.80
2018-09-13T15:18:11.493Z,15.80
2018-09-13T15:20:39.902Z,15.80
2018-09-13T15:23:08.301Z,15.90
2018-09-13T15:25:36.696Z,16.00
2018-09-13T15:28:05.148Z,16.20
2018-09-13T15:30:33.786Z,16.40
2018-09-13T15:33:02.729Z,16.30
2018-09-13T15:35:31.173Z,16.30
2018-09-13T15:37:59.580Z,16.40
2018-09-13T15:40:27.978Z,16.40
2018-09-13T15:42:56.338Z,16.50
2018-09-13T15:45:24.701Z,16.50
2018-09-13T15:47:53.034Z,16.60
2018-09-13T15:50:21.401Z,16.40
2018-09-13T15:52:49.841Z,16.30
2018-09-13T15:55:18.216Z,16.50
2018-09-13T15:57:46.652Z,16.40
2018-09-13T16:00:15.048Z,16.50
2018-09-13T16:02:43.391Z,16.50
2018-09-13T16:05:11.770Z,16.30
2018-09-13T16:07:41.294Z,16.20
2018-09-13T16:10:09.655Z,16.20
2018-09-13T16:12:38.059Z,16.10
2018-09-13T16:15:06.450Z,15.80
2018-09-13T16:17:34.941Z,15.60
2018-09-13T16:20:03.528Z,15.60
2018-09-13T16:22:31.868Z,15.60
2018-09-13T16:25:00.292Z,15.60
2018-09-13T16:27:28.762Z,15.70
2018-09-13T16:29:57.170Z,15.60
2018-09-13T16:32:25.822Z,15.60
2018-09-13T16:34:54.678Z,15.60
2018-09-13T16:37:28.329Z,15.60
2018-09-13T16:40:00.416Z,15.60
2018-09-13T16:42:41.185Z,15.60
2018-09-13T16:45:10.365Z,15.60
2018-09-13T16:47:44.255Z,15.60
2018-09-13T16:50:12.600Z,15.50
2018-09-13T16:52:40.955Z,15.60
2018-09-13T16:55:09.382Z,15.60
2018-09-13T16:57:37.791Z,15.70
2018-09-13T17:00:06.971Z,15.70
2018-09-13T17:02:35.438Z,15.60
2018-09-13T17:05:05.241Z,15.50
2018-09-13T17:07:33.760Z,15.50
2018-09-13T17:10:02.273Z,15.50
2018-09-13T17:12:30.724Z,15.50
2018-09-13T17:14:59.188Z,15.40
2018-09-13T17:17:27.578Z,15.20
2018-09-13T17:19:56.184Z,15.20
2018-09-13T17:22:24.625Z,15.20
2018-09-13T17:24:53.055Z,15.10
2018-09-13T17:27:21.421Z,15.00
2018-09-13T17:29:49.835Z,15.10
2018-09-13T17:32:18.234Z,15.10
2018-09-13T17:34:46.665Z,15.10
2018-09-13T17:37:15.442Z,15.10
2018-09-13T17:39:43.985Z,15.00
2018-09-13T17:42:12.998Z,15.00
2018-09-13T17:44:41.368Z,15.10
2018-09-13T17:47:09.794Z,15.00
2018-09-13T17:49:38.349Z,15.00
2018-09-13T17:52:07.372Z,15.00
2018-09-13T17:54:35.915Z,14.90
2018-09-13T17:57:04.343Z,15.00
2018-09-13T17:59:32.886Z,15.00
2018-09-13T18:02:01.301Z,15.00
2018-09-13T18:04:29.774Z,14.90
2018-09-13T18:06:58.352Z,14.90
2018-09-13T18:09:26.914Z,14.80
2018-09-13T18:11:55.330Z,14.80
2018-09-13T18:14:23.712Z,14.90
2018-09-13T18:16:52.188Z,14.90
2018-09-13T18:19:20.715Z,14.90
2018-09-13T18:21:49.182Z,14.90
2018-09-13T18:24:17.588Z,14.90
2018-09-13T18:26:45.957Z,14.90
2018-09-13T18:29:14.398Z,14.90
2018-09-13T18:31:42.798Z,14.80
2018-09-13T18:34:11.202Z,14.80
2018-09-13T18:36:39.996Z,14.80
2018-09-13T18:39:09.231Z,14.80
2018-09-13T18:41:37.606Z,14.70
2018-09-13T18:44:06.109Z,14.80
2018-09-13T18:46:34.526Z,14.80
2018-09-13T18:49:03.111Z,14.80
2018-09-13T18:51:31.926Z,14.80
2018-09-13T18:54:00.433Z,14.80
2018-09-13T18:56:28.896Z,14.80
2018-09-13T18:58:57.360Z,14.80
2018-09-13T19:01:25.765Z,14.70
2018-09-13T19:03:54.404Z,14.80
2018-09-13T19:06:23.104Z,14.80
2018-09-13T19:08:51.570Z,14.80
2018-09-13T19:11:20.621Z,14.70
2018-09-13T19:13:49.035Z,14.70
2018-09-13T19:16:17.452Z,14.70
2018-09-13T19:18:45.960Z,14.60
2018-09-13T19:21:14.332Z,14.60
2018-09-13T19:23:42.813Z,14.70
2018-09-13T19:26:11.267Z,14.70
2018-09-13T19:28:39.812Z,14.70
2018-09-13T19:31:08.788Z,14.70
2018-09-13T19:33:37.209Z,14.60
2018-09-13T19:36:05.624Z,14.60
2018-09-13T19:38:34.181Z,14.80
2018-09-13T19:41:02.717Z,14.70
2018-09-13T19:43:32.200Z,14.70
2018-09-13T19:46:01.742Z,14.70
2018-09-13T19:48:30.218Z,14.70
2018-09-13T19:50:58.685Z,14.60
2018-09-13T19:53:27.121Z,14.70
2018-09-13T19:55:55.776Z,14.60
2018-09-13T19:58:24.159Z,14.60
2018-09-13T20:00:53.701Z,14.70
2018-09-13T20:03:22.765Z,14.60
2018-09-13T20:05:51.696Z,14.60
2018-09-13T20:08:21.845Z,14.70
2018-09-13T20:10:50.356Z,14.70
2018-09-13T20:13:18.716Z,14.80
2018-09-13T20:15:47.157Z,14.70
2018-09-13T20:18:15.750Z,14.80
2018-09-13T20:20:44.157Z,14.90
2018-09-13T20:23:13.196Z,14.90
2018-09-13T20:25:42.001Z,14.90
2018-09-13T20:28:10.473Z,14.90
2018-09-13T20:30:38.911Z,14.90
2018-09-13T20:33:07.453Z,14.80
2018-09-13T20:35:35.896Z,14.70
2018-09-13T20:38:04.315Z,14.70
2018-09-13T20:40:32.875Z,14.60
2018-09-13T20:43:01.308Z,14.70
2018-09-13T20:45:29.740Z,14.50
2018-09-13T20:47:58.111Z,14.50
2018-09-13T20:50:26.538Z,14.40
2018-09-13T20:52:55.321Z,14.40
2018-09-13T20:55:23.726Z,14.40
2018-09-13T20:57:52.167Z,14.30
2018-09-13T21:00:20.774Z,14.50
2018-09-13T21:02:50.164Z,14.50
2018-09-13T21:05:19.191Z,14.60
2018-09-13T21:07:47.568Z,14.70
2018-09-13T21:10:15.974Z,14.70
2018-09-13T21:12:44.382Z,14.60
2018-09-13T21:15:12.781Z,14.60
2018-09-13T21:17:41.145Z,14.60
2018-09-13T21:20:09.525Z,14.50
2018-09-13T21:22:37.879Z,14.60
2018-09-13T21:25:06.380Z,14.50
2018-09-13T21:27:34.767Z,14.50
2018-09-13T21:30:03.265Z,14.60
2018-09-13T21:32:31.593Z,14.50
2018-09-13T21:35:00.024Z,14.50
2018-09-13T21:37:28.478Z,14.40
2018-09-13T21:39:56.832Z,14.40
2018-09-13T21:42:25.174Z,14.40
2018-09-13T21:44:53.557Z,14.30
2018-09-13T21:47:22.045Z,14.30
2018-09-13T21:49:50.691Z,14.30
2018-09-13T21:52:19.043Z,14.20
2018-09-13T21:54:48.285Z,14.20
2018-09-13T21:57:16.742Z,14.20
2018-09-13T21:59:45.161Z,14.20
2018-09-13T22:02:13.582Z,14.10
2018-09-13T22:04:41.907Z,14.10
2018-09-13T22:07:10.268Z,14.00
2018-09-13T22:09:38.993Z,13.90
2018-09-13T22:12:07.354Z,13.80
2018-09-13T22:14:35.840Z,13.70
2018-09-13T22:17:05.083Z,13.70
2018-09-13T22:19:33.515Z,13.60
2018-09-13T22:22:01.958Z,13.60
2018-09-13T22:24:30.309Z,13.60
2018-09-13T22:26:58.659Z,13.60
2018-09-13T22:29:27.184Z,13.60
2018-09-13T22:31:55.585Z,13.70
2018-09-13T22:34:24.200Z,13.80
2018-09-13T22:36:52.622Z,13.80
2018-09-13T22:39:21.029Z,13.80
2018-09-13T22:41:49.442Z,13.90
2018-09-13T22:44:17.871Z,14.00
2018-09-13T22:46:46.253Z,14.10
2018-09-13T22:49:14.956Z,14.10
2018-09-13T22:51:43.371Z,14.10
2018-09-13T22:54:11.803Z,14.00
2018-09-13T22:56:40.348Z,14.00
2018-09-13T22:59:08.754Z,13.90
2018-09-13T23:01:37.096Z,13.90
2018-09-13T23:04:05.526Z,14.00
2018-09-13T23:06:33.877Z,14.00
2018-09-13T23:09:02.283Z,14.00
2018-09-13T23:11:31.776Z,13.90
2018-09-13T23:14:00.152Z,13.90
2018-09-13T23:16:28.644Z,14.00
2018-09-13T23:18:57.225Z,14.00
2018-09-13T23:21:25.557Z,14.00
2018-09-13T23:23:54.069Z,13.90
2018-09-13T23:26:22.416Z,13.90
2018-09-13T23:28:50.748Z,13.90
2018-09-13T23:31:19.281Z,13.90
2018-09-13T23:33:47.629Z,13.90
2018-09-13T23:36:16.006Z,13.90
2018-09-13T23:38:44.661Z,13.90
2018-09-13T23:41:13.009Z,13.80
2018-09-13T23:43:41.534Z,13.80
2018-09-13T23:46:10.025Z,13.80
2018-09-13T23:48:38.334Z,13.80
2018-09-13T23:51:06.679Z,13.80
2018-09-13T23:53:35.286Z,13.80
2018-09-13T23:56:03.643Z,13.80
2018-09-13T23:58:32.155Z,13.70
